sensor_id;sensor_type;location;lat;lon;timestamp;temperature;humidity
25342;DHT22;13298;48.792;9.154;2022-11-15T00:00:52;8.50;99.90
25342;DHT22;13298;48.792;9.154;2022-11-15T00:03:20;8.50;99.90
25342;DHT22;13298;48.792;9.154;2022-11-15T00:05:47;8.60;99.90
25342;DHT22;13298;48.792;9.154;2022-11-15T00:08:13;8.60;99.90
25342;DHT22;13298;48.792;9.154;2022-11-15T00:10:39;8.60;99.90
25342;DHT22;13298;48.792;9.154;2022-11-15T00:13:10;8.60;99.90
25342;DHT22;13298;48.792;9.154;2022-11-15T00:15:38;8.60;99.90
25342;DHT22;13298;48.792;9.154;2022-11-15T00:18:05;8.60;99.90
25342;DHT22;13298;48.792;9.154;2022-11-15T00:20:35;8.50;99.90
25342;DHT22;13298;48.792;9.154;2022-11-15T00:23:03;8.50;99.90
25342;DHT22;13298;48.792;9.154;2022-11-15T00:25:30;8.50;99.90
25342;DHT22;13298;48.792;9.154;2022-11-15T00:27:57;8.50;99.90
25342;DHT22;13298;48.792;9.154;2022-11-15T00:30:23;8.50;99.90
25342;DHT22;13298;48.792;9.154;2022-11-15T00:32:49;8.50;99.90
25342;DHT22;13298;48.792;9.154;2022-11-15T00:35:15;8.50;99.90
25342;DHT22;13298;48.792;9.154;2022-11-15T00:37:41;8.60;99.90
25342;DHT22;13298;48.792;9.154;2022-11-15T00:40:07;8.60;99.90
25342;DHT22;13298;48.792;9.154;2022-11-15T00:42:34;8.60;99.90
25342;DHT22;13298;48.792;9.154;2022-11-15T00:45:00;8.70;99.90
25342;DHT22;13298;48.792;9.154;2022-11-15T00:47:25;8.70;99.90
25342;DHT22;13298;48.792;9.154;2022-11-15T00:49:51;8.70;99.90
25342;DHT22;13298;48.792;9.154;2022-11-15T00:52:17;8.80;99.90
25342;DHT22;13298;48.792;9.154;2022-11-15T00:54:42;8.80;99.90
25342;DHT22;13298;48.792;9.154;2022-11-15T00:57:08;8.80;99.90
25342;DHT22;13298;48.792;9.154;2022-11-15T00:59:34;8.80;99.90
25342;DHT22;13298;48.792;9.154;2022-11-15T01:02:00;8.80;99.90
25342;DHT22;13298;48.792;9.154;2022-11-15T01:04:26;8.80;99.90
25342;DHT22;13298;48.792;9.154;2022-11-15T01:06:52;8.80;99.90
25342;DHT22;13298;48.792;9.154;2022-11-15T01:09:17;8.80;99.90
25342;DHT22;13298;48.792;9.154;2022-11-15T01:11:43;8.80;99.90
25342;DHT22;13298;48.792;9.154;2022-11-15T01:14:09;8.70;99.90
25342;DHT22;13298;48.792;9.154;2022-11-15T01:16:34;8.70;99.90
25342;DHT22;13298;48.792;9.154;2022-11-15T01:19:00;8.70;99.90
25342;DHT22;13298;48.792;9.154;2022-11-15T01:21:26;8.60;99.90
25342;DHT22;13298;48.792;9.154;2022-11-15T01:23:56;8.50;99.90
25342;DHT22;13298;48.792;9.154;2022-11-15T01:26:22;8.40;99.90
25342;DHT22;13298;48.792;9.154;2022-11-15T01:28:49;8.30;99.90
25342;DHT22;13298;48.792;9.154;2022-11-15T01:31:19;8.20;99.90
25342;DHT22;13298;48.792;9.154;2022-11-15T01:33:46;8.10;99.90
25342;DHT22;13298;48.792;9.154;2022-11-15T01:36:15;8.00;99.90
25342;DHT22;13298;48.792;9.154;2022-11-15T01:38:42;8.00;99.90
25342;DHT22;13298;48.792;9.154;2022-11-15T01:41:20;7.90;99.90
25342;DHT22;13298;48.792;9.154;2022-11-15T01:43:57;7.90;99.90
25342;DHT22;13298;48.792;9.154;2022-11-15T01:46:46;7.80;99.90
25342;DHT22;13298;48.792;9.154;2022-11-15T01:49:18;7.70;99.90
25342;DHT22;13298;48.792;9.154;2022-11-15T01:51:45;7.60;99.90
25342;DHT22;13298;48.792;9.154;2022-11-15T01:54:15;7.60;99.90
25342;DHT22;13298;48.792;9.154;2022-11-15T01:56:52;7.60;99.90
25342;DHT22;13298;48.792;9.154;2022-11-15T01:59:20;7.50;99.90
25342;DHT22;13298;48.792;9.154;2022-11-15T02:01:46;7.50;99.90
25342;DHT22;13298;48.792;9.154;2022-11-15T02:04:26;7.50;99.90
25342;DHT22;13298;48.792;9.154;2022-11-15T02:06:54;7.50;99.90
25342;DHT22;13298;48.792;9.154;2022-11-15T02:09:20;7.60;99.90
25342;DHT22;13298;48.792;9.154;2022-11-15T02:11:47;7.70;99.90
25342;DHT22;13298;48.792;9.154;2022-11-15T02:14:16;7.80;99.90
25342;DHT22;13298;48.792;9.154;2022-11-15T02:37:56;8.00;99.90
25342;DHT22;13298;48.792;9.154;2022-11-15T02:43:09;7.90;99.90
25342;DHT22;13298;48.792;9.154;2022-11-15T02:46:19;7.90;99.90
25342;DHT22;13298;48.792;9.154;2022-11-15T02:49:16;7.90;99.90
25342;DHT22;13298;48.792;9.154;2022-11-15T02:51:44;7.80;99.90
25342;DHT22;13298;48.792;9.154;2022-11-15T02:54:31;7.80;99.90
25342;DHT22;13298;48.792;9.154;2022-11-15T02:57:03;7.80;99.90
25342;DHT22;13298;48.792;9.154;2022-11-15T03:05:46;7.80;99.90
25342;DHT22;13298;48.792;9.154;2022-11-15T03:11:32;7.70;99.90
25342;DHT22;13298;48.792;9.154;2022-11-15T03:14:29;7.60;99.90
25342;DHT22;13298;48.792;9.154;2022-11-15T03:17:10;7.50;99.90
25342;DHT22;13298;48.792;9.154;2022-11-15T03:19:54;7.40;99.90
25342;DHT22;13298;48.792;9.154;2022-11-15T03:22:24;7.30;99.90
25342;DHT22;13298;48.792;9.154;2022-11-15T03:24:57;7.20;99.90
25342;DHT22;13298;48.792;9.154;2022-11-15T03:27:30;7.20;99.90
25342;DHT22;13298;48.792;9.154;2022-11-15T03:30:02;7.20;99.90
25342;DHT22;13298;48.792;9.154;2022-11-15T03:32:33;7.20;99.90
25342;DHT22;13298;48.792;9.154;2022-11-15T03:35:06;7.20;99.90
25342;DHT22;13298;48.792;9.154;2022-11-15T03:37:38;7.20;99.90
25342;DHT22;13298;48.792;9.154;2022-11-15T03:40:05;7.20;99.90
25342;DHT22;13298;48.792;9.154;2022-11-15T03:42:51;7.20;99.90
25342;DHT22;13298;48.792;9.154;2022-11-15T03:45:43;7.20;99.90
25342;DHT22;13298;48.792;9.154;2022-11-15T03:48:16;7.20;99.90
25342;DHT22;13298;48.792;9.154;2022-11-15T03:50:46;7.30;99.90
25342;DHT22;13298;48.792;9.154;2022-11-15T03:53:12;7.30;99.90
25342;DHT22;13298;48.792;9.154;2022-11-15T03:55:38;7.30;99.90
25342;DHT22;13298;48.792;9.154;2022-11-15T03:58:04;7.40;99.90
25342;DHT22;13298;48.792;9.154;2022-11-15T04:00:30;7.40;99.90
25342;DHT22;13298;48.792;9.154;2022-11-15T04:02:55;7.50;99.90
25342;DHT22;13298;48.792;9.154;2022-11-15T04:05:21;7.60;99.90
25342;DHT22;13298;48.792;9.154;2022-11-15T04:07:47;7.60;99.90
25342;DHT22;13298;48.792;9.154;2022-11-15T04:10:13;7.70;99.90
25342;DHT22;13298;48.792;9.154;2022-11-15T04:12:42;7.70;99.90
25342;DHT22;13298;48.792;9.154;2022-11-15T04:15:16;7.80;99.90
25342;DHT22;13298;48.792;9.154;2022-11-15T04:17:50;7.90;99.90
25342;DHT22;13298;48.792;9.154;2022-11-15T04:20:22;7.90;99.90
25342;DHT22;13298;48.792;9.154;2022-11-15T04:23:21;7.90;99.90
25342;DHT22;13298;48.792;9.154;2022-11-15T04:26:11;8.00;99.90
25342;DHT22;13298;48.792;9.154;2022-11-15T04:28:40;8.10;99.90
25342;DHT22;13298;48.792;9.154;2022-11-15T04:31:26;8.10;99.90
25342;DHT22;13298;48.792;9.154;2022-11-15T04:33:52;8.20;99.90
25342;DHT22;13298;48.792;9.154;2022-11-15T04:36:18;8.20;99.90
25342;DHT22;13298;48.792;9.154;2022-11-15T04:39:03;8.20;99.90
25342;DHT22;13298;48.792;9.154;2022-11-15T04:41:28;8.30;99.90
25342;DHT22;13298;48.792;9.154;2022-11-15T04:43:55;8.30;99.90
25342;DHT22;13298;48.792;9.154;2022-11-15T04:46:21;8.20;99.90
25342;DHT22;13298;48.792;9.154;2022-11-15T04:48:47;8.10;99.90
25342;DHT22;13298;48.792;9.154;2022-11-15T04:51:13;8.00;99.90
25342;DHT22;13298;48.792;9.154;2022-11-15T04:53:38;7.90;99.90
25342;DHT22;13298;48.792;9.154;2022-11-15T04:56:04;7.80;99.90
25342;DHT22;13298;48.792;9.154;2022-11-15T04:58:30;7.70;99.90
25342;DHT22;13298;48.792;9.154;2022-11-15T05:00:55;7.60;99.90
25342;DHT22;13298;48.792;9.154;2022-11-15T05:03:21;7.50;99.90
25342;DHT22;13298;48.792;9.154;2022-11-15T05:06:06;7.40;99.90
25342;DHT22;13298;48.792;9.154;2022-11-15T05:08:32;7.30;99.90
25342;DHT22;13298;48.792;9.154;2022-11-15T05:10:57;7.30;99.90
25342;DHT22;13298;48.792;9.154;2022-11-15T05:13:23;7.30;99.90
25342;DHT22;13298;48.792;9.154;2022-11-15T05:15:49;7.30;99.90
25342;DHT22;13298;48.792;9.154;2022-11-15T05:18:15;7.30;99.90
25342;DHT22;13298;48.792;9.154;2022-11-15T05:20:40;7.30;99.90
25342;DHT22;13298;48.792;9.154;2022-11-15T05:23:06;7.30;99.90
25342;DHT22;13298;48.792;9.154;2022-11-15T05:25:32;7.30;99.90
25342;DHT22;13298;48.792;9.154;2022-11-15T05:27:58;7.30;99.90
25342;DHT22;13298;48.792;9.154;2022-11-15T05:30:24;7.30;99.90
25342;DHT22;13298;48.792;9.154;2022-11-15T05:32:50;7.30;99.90
25342;DHT22;13298;48.792;9.154;2022-11-15T05:35:25;7.30;99.90
25342;DHT22;13298;48.792;9.154;2022-11-15T05:37:59;7.30;99.90
25342;DHT22;13298;48.792;9.154;2022-11-15T05:40:26;7.40;99.90
25342;DHT22;13298;48.792;9.154;2022-11-15T05:42:52;7.50;99.90
25342;DHT22;13298;48.792;9.154;2022-11-15T05:45:18;7.60;99.90
25342;DHT22;13298;48.792;9.154;2022-11-15T05:47:44;7.60;99.90
25342;DHT22;13298;48.792;9.154;2022-11-15T05:50:12;7.60;99.90
25342;DHT22;13298;48.792;9.154;2022-11-15T05:52:39;7.70;99.90
25342;DHT22;13298;48.792;9.154;2022-11-15T05:55:07;7.60;99.90
25342;DHT22;13298;48.792;9.154;2022-11-15T05:57:34;7.70;99.90
25342;DHT22;13298;48.792;9.154;2022-11-15T06:00:00;7.70;99.90
25342;DHT22;13298;48.792;9.154;2022-11-15T06:02:26;7.80;99.90
25342;DHT22;13298;48.792;9.154;2022-11-15T06:04:52;7.80;99.90
25342;DHT22;13298;48.792;9.154;2022-11-15T06:07:18;7.80;99.90
25342;DHT22;13298;48.792;9.154;2022-11-15T06:09:43;7.80;99.90
25342;DHT22;13298;48.792;9.154;2022-11-15T06:12:09;7.80;99.90
25342;DHT22;13298;48.792;9.154;2022-11-15T06:14:35;7.80;99.90
25342;DHT22;13298;48.792;9.154;2022-11-15T06:17:00;7.80;99.90
25342;DHT22;13298;48.792;9.154;2022-11-15T06:19:27;7.80;99.90
25342;DHT22;13298;48.792;9.154;2022-11-15T06:21:52;7.80;99.90
25342;DHT22;13298;48.792;9.154;2022-11-15T06:24:18;7.70;99.90
25342;DHT22;13298;48.792;9.154;2022-11-15T06:26:44;7.70;99.90
25342;DHT22;13298;48.792;9.154;2022-11-15T06:29:09;7.70;99.90
25342;DHT22;13298;48.792;9.154;2022-11-15T06:31:35;7.60;99.90
25342;DHT22;13298;48.792;9.154;2022-11-15T06:34:01;7.60;99.90
25342;DHT22;13298;48.792;9.154;2022-11-15T06:36:27;7.60;99.90
25342;DHT22;13298;48.792;9.154;2022-11-15T06:38:52;7.70;99.90
25342;DHT22;13298;48.792;9.154;2022-11-15T06:41:18;7.70;99.90
25342;DHT22;13298;48.792;9.154;2022-11-15T06:43:44;7.70;99.90
25342;DHT22;13298;48.792;9.154;2022-11-15T06:46:10;7.70;99.90
25342;DHT22;13298;48.792;9.154;2022-11-15T06:48:36;7.80;99.90
25342;DHT22;13298;48.792;9.154;2022-11-15T06:51:03;7.80;99.90
25342;DHT22;13298;48.792;9.154;2022-11-15T06:53:29;7.80;99.90
25342;DHT22;13298;48.792;9.154;2022-11-15T06:56:01;7.80;99.90
25342;DHT22;13298;48.792;9.154;2022-11-15T06:58:28;7.80;99.90
25342;DHT22;13298;48.792;9.154;2022-11-15T07:00:58;7.80;99.90
25342;DHT22;13298;48.792;9.154;2022-11-15T07:03:25;7.90;99.90
25342;DHT22;13298;48.792;9.154;2022-11-15T07:05:53;7.90;99.90
25342;DHT22;13298;48.792;9.154;2022-11-15T07:08:19;8.00;99.90
25342;DHT22;13298;48.792;9.154;2022-11-15T07:10:46;8.00;99.90
25342;DHT22;13298;48.792;9.154;2022-11-15T07:13:11;8.10;99.90
25342;DHT22;13298;48.792;9.154;2022-11-15T07:15:37;8.20;99.90
25342;DHT22;13298;48.792;9.154;2022-11-15T07:18:03;8.30;99.90
25342;DHT22;13298;48.792;9.154;2022-11-15T07:20:29;8.40;99.90
25342;DHT22;13298;48.792;9.154;2022-11-15T07:23:02;8.40;99.90
25342;DHT22;13298;48.792;9.154;2022-11-15T07:25:28;8.50;99.90
25342;DHT22;13298;48.792;9.154;2022-11-15T07:27:55;8.60;99.90
25342;DHT22;13298;48.792;9.154;2022-11-15T07:30:22;8.80;99.90
25342;DHT22;13298;48.792;9.154;2022-11-15T07:32:52;8.90;99.90
25342;DHT22;13298;48.792;9.154;2022-11-15T07:35:22;9.10;99.90
25342;DHT22;13298;48.792;9.154;2022-11-15T07:37:58;9.20;99.90
25342;DHT22;13298;48.792;9.154;2022-11-15T07:40:27;9.40;99.90
25342;DHT22;13298;48.792;9.154;2022-11-15T07:43:02;9.60;99.90
25342;DHT22;13298;48.792;9.154;2022-11-15T07:45:29;9.80;99.90
25342;DHT22;13298;48.792;9.154;2022-11-15T07:47:55;10.00;99.90
25342;DHT22;13298;48.792;9.154;2022-11-15T07:50:23;10.20;99.90
25342;DHT22;13298;48.792;9.154;2022-11-15T07:52:57;10.40;99.90
25342;DHT22;13298;48.792;9.154;2022-11-15T07:55:25;10.50;99.90
25342;DHT22;13298;48.792;9.154;2022-11-15T07:57:52;10.60;99.90
25342;DHT22;13298;48.792;9.154;2022-11-15T08:00:19;10.60;99.90
25342;DHT22;13298;48.792;9.154;2022-11-15T08:02:45;10.60;99.90
25342;DHT22;13298;48.792;9.154;2022-11-15T08:05:11;10.70;99.90
25342;DHT22;13298;48.792;9.154;2022-11-15T08:07:37;10.80;99.90
25342;DHT22;13298;48.792;9.154;2022-11-15T08:10:04;10.80;99.90
25342;DHT22;13298;48.792;9.154;2022-11-15T08:12:31;11.00;99.90
25342;DHT22;13298;48.792;9.154;2022-11-15T08:14:57;11.00;99.90
25342;DHT22;13298;48.792;9.154;2022-11-15T08:17:23;11.10;99.90
25342;DHT22;13298;48.792;9.154;2022-11-15T08:19:49;11.20;99.90
25342;DHT22;13298;48.792;9.154;2022-11-15T08:22:15;11.20;99.90
25342;DHT22;13298;48.792;9.154;2022-11-15T08:24:41;11.30;99.90
25342;DHT22;13298;48.792;9.154;2022-11-15T08:27:07;11.30;99.90
25342;DHT22;13298;48.792;9.154;2022-11-15T08:29:46;11.40;99.90
25342;DHT22;13298;48.792;9.154;2022-11-15T08:32:13;11.50;99.90
25342;DHT22;13298;48.792;9.154;2022-11-15T08:34:39;11.50;99.90
25342;DHT22;13298;48.792;9.154;2022-11-15T08:37:04;11.50;99.90
25342;DHT22;13298;48.792;9.154;2022-11-15T08:39:30;11.50;99.90
25342;DHT22;13298;48.792;9.154;2022-11-15T08:41:56;11.40;99.90
25342;DHT22;13298;48.792;9.154;2022-11-15T08:44:22;11.40;99.90
25342;DHT22;13298;48.792;9.154;2022-11-15T08:46:49;11.40;99.90
25342;DHT22;13298;48.792;9.154;2022-11-15T08:49:15;11.30;99.90
25342;DHT22;13298;48.792;9.154;2022-11-15T08:51:41;11.30;99.90
25342;DHT22;13298;48.792;9.154;2022-11-15T08:54:07;11.30;99.90
25342;DHT22;13298;48.792;9.154;2022-11-15T08:56:32;11.30;99.90
25342;DHT22;13298;48.792;9.154;2022-11-15T08:58:58;11.40;99.90
25342;DHT22;13298;48.792;9.154;2022-11-15T09:01:24;11.50;99.90
25342;DHT22;13298;48.792;9.154;2022-11-15T09:03:50;11.70;99.90
25342;DHT22;13298;48.792;9.154;2022-11-15T09:06:16;11.70;99.90
25342;DHT22;13298;48.792;9.154;2022-11-15T09:08:42;11.90;99.90
25342;DHT22;13298;48.792;9.154;2022-11-15T09:11:09;12.00;99.90
25342;DHT22;13298;48.792;9.154;2022-11-15T09:13:35;12.10;99.90
25342;DHT22;13298;48.792;9.154;2022-11-15T09:16:04;12.10;99.90
25342;DHT22;13298;48.792;9.154;2022-11-15T09:18:30;12.30;99.90
25342;DHT22;13298;48.792;9.154;2022-11-15T09:20:57;12.50;99.90
25342;DHT22;13298;48.792;9.154;2022-11-15T09:23:24;12.70;99.90
25342;DHT22;13298;48.792;9.154;2022-11-15T09:25:51;12.80;99.90
25342;DHT22;13298;48.792;9.154;2022-11-15T09:28:17;13.00;99.90
25342;DHT22;13298;48.792;9.154;2022-11-15T09:30:43;13.10;99.90
25342;DHT22;13298;48.792;9.154;2022-11-15T09:33:12;13.20;99.90
25342;DHT22;13298;48.792;9.154;2022-11-15T09:35:38;13.30;99.90
25342;DHT22;13298;48.792;9.154;2022-11-15T09:38:06;13.30;99.90
25342;DHT22;13298;48.792;9.154;2022-11-15T09:40:32;13.40;99.90
25342;DHT22;13298;48.792;9.154;2022-11-15T09:43:26;13.50;99.90
25342;DHT22;13298;48.792;9.154;2022-11-15T09:46:21;13.60;99.90
25342;DHT22;13298;48.792;9.154;2022-11-15T09:48:59;13.70;99.90
25342;DHT22;13298;48.792;9.154;2022-11-15T09:51:38;13.80;99.90
25342;DHT22;13298;48.792;9.154;2022-11-15T09:54:34;13.80;99.90
25342;DHT22;13298;48.792;9.154;2022-11-15T09:57:10;13.90;99.90
25342;DHT22;13298;48.792;9.154;2022-11-15T10:05:21;14.30;99.90
25342;DHT22;13298;48.792;9.154;2022-11-15T10:10:52;14.30;99.90
25342;DHT22;13298;48.792;9.154;2022-11-15T10:13:26;14.40;99.90
25342;DHT22;13298;48.792;9.154;2022-11-15T10:16:12;14.50;99.90
25342;DHT22;13298;48.792;9.154;2022-11-15T10:27:47;14.70;99.90
25342;DHT22;13298;48.792;9.154;2022-11-15T10:30:18;14.80;99.90
25342;DHT22;13298;48.792;9.154;2022-11-15T10:32:46;14.80;99.90
25342;DHT22;13298;48.792;9.154;2022-11-15T10:37:51;14.80;99.90
25342;DHT22;13298;48.792;9.154;2022-11-15T10:40:22;14.80;99.90
25342;DHT22;13298;48.792;9.154;2022-11-15T10:45:37;14.70;99.90
25342;DHT22;13298;48.792;9.154;2022-11-15T10:50:40;14.70;99.90
25342;DHT22;13298;48.792;9.154;2022-11-15T10:53:20;14.70;99.90
25342;DHT22;13298;48.792;9.154;2022-11-15T10:55:51;14.70;99.90
25342;DHT22;13298;48.792;9.154;2022-11-15T10:58:35;14.70;99.90
25342;DHT22;13298;48.792;9.154;2022-11-15T11:01:29;14.70;99.90
25342;DHT22;13298;48.792;9.154;2022-11-15T11:04:02;14.80;99.90
25342;DHT22;13298;48.792;9.154;2022-11-15T11:06:30;14.70;99.90
25342;DHT22;13298;48.792;9.154;2022-11-15T11:09:04;14.70;99.90
25342;DHT22;13298;48.792;9.154;2022-11-15T11:11:48;14.60;99.90
25342;DHT22;13298;48.792;9.154;2022-11-15T11:14:43;14.50;99.90
25342;DHT22;13298;48.792;9.154;2022-11-15T11:20:40;14.40;99.90
25342;DHT22;13298;48.792;9.154;2022-11-15T11:32:08;14.50;99.90
25342;DHT22;13298;48.792;9.154;2022-11-15T11:35:09;14.60;99.90
25342;DHT22;13298;48.792;9.154;2022-11-15T11:46:11;14.90;99.90
25342;DHT22;13298;48.792;9.154;2022-11-15T11:48:57;15.00;99.90
25342;DHT22;13298;48.792;9.154;2022-11-15T11:51:39;15.10;99.90
25342;DHT22;13298;48.792;9.154;2022-11-15T11:54:25;15.10;99.90
25342;DHT22;13298;48.792;9.154;2022-11-15T11:56:53;15.10;99.90
25342;DHT22;13298;48.792;9.154;2022-11-15T11:59:39;15.10;99.90
25342;DHT22;13298;48.792;9.154;2022-11-15T12:02:33;15.10;99.90
25342;DHT22;13298;48.792;9.154;2022-11-15T12:08:22;15.20;99.90
25342;DHT22;13298;48.792;9.154;2022-11-15T12:11:10;15.30;99.90
25342;DHT22;13298;48.792;9.154;2022-11-15T12:13:40;15.40;99.90
25342;DHT22;13298;48.792;9.154;2022-11-15T12:16:15;15.40;99.90
25342;DHT22;13298;48.792;9.154;2022-11-15T12:18:48;15.30;99.90
25342;DHT22;13298;48.792;9.154;2022-11-15T12:24:21;15.20;99.90
25342;DHT22;13298;48.792;9.154;2022-11-15T12:27:18;15.10;99.90
25342;DHT22;13298;48.792;9.154;2022-11-15T12:29:59;15.00;99.90
25342;DHT22;13298;48.792;9.154;2022-11-15T12:32:34;15.00;99.90
25342;DHT22;13298;48.792;9.154;2022-11-15T12:35:03;14.90;99.90
25342;DHT22;13298;48.792;9.154;2022-11-15T12:42:38;14.70;99.90
25342;DHT22;13298;48.792;9.154;2022-11-15T12:45:36;14.70;99.90
25342;DHT22;13298;48.792;9.154;2022-11-15T12:58:46;14.50;99.90
25342;DHT22;13298;48.792;9.154;2022-11-15T13:07:09;14.40;99.90
25342;DHT22;13298;48.792;9.154;2022-11-15T13:12:10;14.30;99.90
25342;DHT22;13298;48.792;9.154;2022-11-15T13:14:43;14.30;99.90
25342;DHT22;13298;48.792;9.154;2022-11-15T13:17:35;14.30;99.90
25342;DHT22;13298;48.792;9.154;2022-11-15T13:30:49;14.20;99.90
25342;DHT22;13298;48.792;9.154;2022-11-15T13:33:21;14.20;99.90
25342;DHT22;13298;48.792;9.154;2022-11-15T13:35:51;14.10;99.90
25342;DHT22;13298;48.792;9.154;2022-11-15T13:40:52;14.10;99.90
25342;DHT22;13298;48.792;9.154;2022-11-15T13:46:10;14.00;99.90
25342;DHT22;13298;48.792;9.154;2022-11-15T13:48:39;13.90;99.90
25342;DHT22;13298;48.792;9.154;2022-11-15T13:51:35;13.80;99.90
25342;DHT22;13298;48.792;9.154;2022-11-15T13:54:19;13.80;99.90
25342;DHT22;13298;48.792;9.154;2022-11-15T13:56:53;13.80;99.90
25342;DHT22;13298;48.792;9.154;2022-11-15T13:59:33;13.80;99.90
25342;DHT22;13298;48.792;9.154;2022-11-15T14:02:03;13.70;99.90
25342;DHT22;13298;48.792;9.154;2022-11-15T14:04:39;13.70;99.90
25342;DHT22;13298;48.792;9.154;2022-11-15T14:07:17;13.60;99.90
25342;DHT22;13298;48.792;9.154;2022-11-15T14:09:45;13.50;99.90
25342;DHT22;13298;48.792;9.154;2022-11-15T14:12:34;13.40;99.90
25342;DHT22;13298;48.792;9.154;2022-11-15T14:15:25;13.30;99.90
25342;DHT22;13298;48.792;9.154;2022-11-15T14:17:51;13.20;99.90
25342;DHT22;13298;48.792;9.154;2022-11-15T14:23:25;13.00;99.90
25342;DHT22;13298;48.792;9.154;2022-11-15T14:25:56;12.90;99.90
25342;DHT22;13298;48.792;9.154;2022-11-15T14:30:49;12.70;99.90
25342;DHT22;13298;48.792;9.154;2022-11-15T14:33:24;12.60;99.90
25342;DHT22;13298;48.792;9.154;2022-11-15T14:35:54;12.60;99.90
25342;DHT22;13298;48.792;9.154;2022-11-15T14:38:23;12.60;99.90
25342;DHT22;13298;48.792;9.154;2022-11-15T14:40:49;12.60;99.90
25342;DHT22;13298;48.792;9.154;2022-11-15T14:43:15;12.60;99.90
25342;DHT22;13298;48.792;9.154;2022-11-15T14:45:41;12.60;99.90
25342;DHT22;13298;48.792;9.154;2022-11-15T14:48:08;12.50;99.90
25342;DHT22;13298;48.792;9.154;2022-11-15T14:50:34;12.50;99.90
25342;DHT22;13298;48.792;9.154;2022-11-15T14:53:01;12.50;99.90
25342;DHT22;13298;48.792;9.154;2022-11-15T14:55:35;12.40;99.90
25342;DHT22;13298;48.792;9.154;2022-11-15T14:58:02;12.40;99.90
25342;DHT22;13298;48.792;9.154;2022-11-15T15:00:30;12.40;99.90
25342;DHT22;13298;48.792;9.154;2022-11-15T15:02:56;12.40;99.90
25342;DHT22;13298;48.792;9.154;2022-11-15T15:05:34;12.40;99.90
25342;DHT22;13298;48.792;9.154;2022-11-15T15:08:01;12.40;99.90
25342;DHT22;13298;48.792;9.154;2022-11-15T15:10:33;12.30;99.90
25342;DHT22;13298;48.792;9.154;2022-11-15T15:13:02;12.20;99.90
25342;DHT22;13298;48.792;9.154;2022-11-15T15:15:33;12.10;99.90
25342;DHT22;13298;48.792;9.154;2022-11-15T15:18:00;12.00;99.90
25342;DHT22;13298;48.792;9.154;2022-11-15T15:20:26;12.00;99.90
25342;DHT22;13298;48.792;9.154;2022-11-15T15:22:52;11.90;99.90
25342;DHT22;13298;48.792;9.154;2022-11-15T15:25:30;11.90;99.90
25342;DHT22;13298;48.792;9.154;2022-11-15T15:27:58;11.80;99.90
25342;DHT22;13298;48.792;9.154;2022-11-15T15:30:27;11.80;99.90
25342;DHT22;13298;48.792;9.154;2022-11-15T15:32:54;11.70;99.90
25342;DHT22;13298;48.792;9.154;2022-11-15T15:35:21;11.70;99.90
25342;DHT22;13298;48.792;9.154;2022-11-15T15:37:48;11.60;99.90
25342;DHT22;13298;48.792;9.154;2022-11-15T15:40:18;11.60;99.90
25342;DHT22;13298;48.792;9.154;2022-11-15T15:42:48;11.50;99.90
25342;DHT22;13298;48.792;9.154;2022-11-15T15:45:15;11.50;99.90
25342;DHT22;13298;48.792;9.154;2022-11-15T15:47:42;11.40;99.90
25342;DHT22;13298;48.792;9.154;2022-11-15T15:50:28;11.40;99.90
25342;DHT22;13298;48.792;9.154;2022-11-15T15:53:01;11.40;99.90
25342;DHT22;13298;48.792;9.154;2022-11-15T15:55:28;11.30;99.90
25342;DHT22;13298;48.792;9.154;2022-11-15T15:57:54;11.30;99.90
25342;DHT22;13298;48.792;9.154;2022-11-15T16:00:21;11.20;99.90
25342;DHT22;13298;48.792;9.154;2022-11-15T16:02:50;11.20;99.90
25342;DHT22;13298;48.792;9.154;2022-11-15T16:05:16;11.10;99.90
25342;DHT22;13298;48.792;9.154;2022-11-15T16:07:43;11.10;99.90
25342;DHT22;13298;48.792;9.154;2022-11-15T16:10:30;11.10;99.90
25342;DHT22;13298;48.792;9.154;2022-11-15T16:12:57;11.10;99.90
25342;DHT22;13298;48.792;9.154;2022-11-15T16:15:26;11.20;99.90
25342;DHT22;13298;48.792;9.154;2022-11-15T16:17:54;11.20;99.90
25342;DHT22;13298;48.792;9.154;2022-11-15T16:23:16;11.20;99.90
25342;DHT22;13298;48.792;9.154;2022-11-15T16:25:51;11.30;99.90
25342;DHT22;13298;48.792;9.154;2022-11-15T16:28:28;11.30;99.90
25342;DHT22;13298;48.792;9.154;2022-11-15T16:31:10;11.30;99.90
25342;DHT22;13298;48.792;9.154;2022-11-15T16:33:37;11.30;99.90
25342;DHT22;13298;48.792;9.154;2022-11-15T16:36:05;11.30;99.90
25342;DHT22;13298;48.792;9.154;2022-11-15T16:38:32;11.30;99.90
25342;DHT22;13298;48.792;9.154;2022-11-15T16:40:58;11.20;99.90
25342;DHT22;13298;48.792;9.154;2022-11-15T16:43:23;11.20;99.90
25342;DHT22;13298;48.792;9.154;2022-11-15T16:45:50;11.20;99.90
25342;DHT22;13298;48.792;9.154;2022-11-15T16:48:26;11.20;99.90
25342;DHT22;13298;48.792;9.154;2022-11-15T16:50:57;11.10;99.90
25342;DHT22;13298;48.792;9.154;2022-11-15T16:53:23;11.10;99.90
25342;DHT22;13298;48.792;9.154;2022-11-15T16:55:49;11.10;99.90
25342;DHT22;13298;48.792;9.154;2022-11-15T16:58:15;11.10;99.90
25342;DHT22;13298;48.792;9.154;2022-11-15T17:00:41;11.10;99.90
25342;DHT22;13298;48.792;9.154;2022-11-15T17:03:07;11.00;99.90
25342;DHT22;13298;48.792;9.154;2022-11-15T17:05:32;11.00;99.90
25342;DHT22;13298;48.792;9.154;2022-11-15T17:07:58;11.00;99.90
25342;DHT22;13298;48.792;9.154;2022-11-15T17:10:25;11.00;99.90
25342;DHT22;13298;48.792;9.154;2022-11-15T17:12:52;11.00;99.90
25342;DHT22;13298;48.792;9.154;2022-11-15T17:15:20;11.00;99.90
25342;DHT22;13298;48.792;9.154;2022-11-15T17:17:51;11.00;99.90
25342;DHT22;13298;48.792;9.154;2022-11-15T17:20:19;11.00;99.90
25342;DHT22;13298;48.792;9.154;2022-11-15T17:22:46;11.10;99.90
25342;DHT22;13298;48.792;9.154;2022-11-15T17:25:12;11.10;99.90
25342;DHT22;13298;48.792;9.154;2022-11-15T17:27:38;11.10;99.90
25342;DHT22;13298;48.792;9.154;2022-11-15T17:30:05;11.10;99.90
25342;DHT22;13298;48.792;9.154;2022-11-15T17:32:31;11.10;99.90
25342;DHT22;13298;48.792;9.154;2022-11-15T17:34:57;11.20;99.90
25342;DHT22;13298;48.792;9.154;2022-11-15T17:37:22;11.20;99.90
25342;DHT22;13298;48.792;9.154;2022-11-15T17:39:48;11.20;99.90
25342;DHT22;13298;48.792;9.154;2022-11-15T17:42:14;11.20;99.90
25342;DHT22;13298;48.792;9.154;2022-11-15T17:44:39;11.30;99.90
25342;DHT22;13298;48.792;9.154;2022-11-15T17:47:05;11.30;99.90
25342;DHT22;13298;48.792;9.154;2022-11-15T17:49:32;11.30;99.90
25342;DHT22;13298;48.792;9.154;2022-11-15T17:52:02;11.30;99.90
25342;DHT22;13298;48.792;9.154;2022-11-15T17:54:28;11.30;99.90
25342;DHT22;13298;48.792;9.154;2022-11-15T17:56:53;11.30;99.90
25342;DHT22;13298;48.792;9.154;2022-11-15T17:59:19;11.30;99.90
25342;DHT22;13298;48.792;9.154;2022-11-15T18:01:45;11.30;99.90
25342;DHT22;13298;48.792;9.154;2022-11-15T18:04:10;11.30;99.90
25342;DHT22;13298;48.792;9.154;2022-11-15T18:06:39;11.30;99.90
25342;DHT22;13298;48.792;9.154;2022-11-15T18:09:05;11.30;99.90
25342;DHT22;13298;48.792;9.154;2022-11-15T18:11:35;11.30;99.90